createdAt,value
2022-11-02T00:01:18.154Z,10.20
2022-11-02T00:03:44.926Z,10.20
2022-11-02T00:06:11.594Z,10.20
2022-11-02T00:08:38.247Z,10.20
2022-11-02T00:11:04.981Z,10.20
2022-11-02T00:13:32.103Z,10.20
2022-11-02T00:15:58.802Z,10.20
2022-11-02T00:18:25.863Z,10.20
2022-11-02T00:20:52.507Z,10.20
2022-11-02T00:23:19.207Z,10.20
2022-11-02T00:25:45.880Z,10.20
2022-11-02T00:28:12.588Z,10.20
2022-11-02T00:30:39.290Z,10.10
2022-11-02T00:33:06.270Z,10.20
2022-11-02T00:35:33.210Z,10.20
2022-11-02T00:38:00.115Z,10.20
2022-11-02T00:40:26.968Z,10.10
2022-11-02T00:42:53.617Z,10.10
2022-11-02T00:45:20.332Z,10.10
2022-11-02T00:47:47.870Z,10.10
2022-11-02T00:50:14.591Z,10.10
2022-11-02T00:52:42.415Z,10.10
2022-11-02T00:55:09.196Z,10.10
2022-11-02T00:57:36.478Z,10.10
2022-11-02T01:00:03.688Z,10.10
2022-11-02T01:02:30.587Z,10.10
2022-11-02T01:04:57.468Z,10.00
2022-11-02T01:07:24.141Z,10.00
2022-11-02T01:09:50.787Z,10.00
2022-11-02T01:12:18.369Z,10.00
2022-11-02T01:14:45.243Z,10.00
2022-11-02T01:17:13.614Z,10.00
2022-11-02T01:19:41.068Z,10.00
2022-11-02T01:22:07.739Z,10.00
2022-11-02T01:24:34.659Z,9.90
2022-11-02T01:27:02.636Z,9.90
2022-11-02T01:29:29.336Z,9.90
2022-11-02T01:31:56.039Z,9.90
2022-11-02T01:34:23.005Z,9.90
2022-11-02T01:36:49.688Z,9.90
2022-11-02T01:39:17.011Z,9.80
2022-11-02T01:41:43.694Z,9.80
2022-11-02T01:44:10.937Z,9.80
2022-11-02T01:46:38.356Z,9.80
2022-11-02T01:49:05.011Z,9.80
2022-11-02T01:51:31.958Z,9.80
2022-11-02T01:53:58.647Z,9.80
2022-11-02T01:56:25.462Z,9.80
2022-11-02T01:58:52.206Z,9.80
2022-11-02T02:01:18.957Z,9.70
2022-11-02T02:03:45.737Z,9.70
2022-11-02T02:06:13.172Z,9.70
2022-11-02T02:08:39.967Z,9.70
2022-11-02T02:11:06.697Z,9.70
2022-11-02T02:13:33.372Z,9.70
2022-11-02T02:16:00.587Z,9.70
2022-11-02T02:18:27.482Z,9.70
2022-11-02T02:20:54.232Z,9.60
2022-11-02T02:23:22.493Z,9.60
2022-11-02T02:25:51.437Z,9.60
2022-11-02T02:28:19.800Z,9.60
2022-11-02T02:30:46.963Z,9.60
2022-11-02T02:33:13.632Z,9.60
2022-11-02T02:35:40.395Z,9.60
2022-11-02T02:38:07.411Z,9.60
2022-11-02T02:40:35.845Z,9.60
2022-11-02T02:43:02.797Z,9.60
2022-11-02T02:45:29.507Z,9.60
2022-11-02T02:47:56.146Z,9.50
2022-11-02T02:50:22.906Z,9.50
2022-11-02T02:52:49.628Z,9.50
2022-11-02T02:55:16.626Z,9.50
2022-11-02T02:57:43.352Z,9.50
2022-11-02T03:00:10.138Z,9.50
2022-11-02T03:02:37.005Z,9.40
2022-11-02T03:05:03.916Z,9.40
2022-11-02T03:07:33.757Z,9.40
2022-11-02T03:10:04.245Z,9.40
2022-11-02T03:12:32.387Z,9.40
2022-11-02T03:14:59.612Z,9.40
2022-11-02T03:17:28.693Z,9.40
2022-11-02T03:19:55.521Z,9.40
2022-11-02T03:22:22.567Z,9.40
2022-11-02T03:24:49.894Z,9.40
2022-11-02T03:27:16.716Z,9.40
2022-11-02T03:29:44.227Z,9.40
2022-11-02T03:32:10.997Z,9.40
2022-11-02T03:34:38.262Z,9.30
2022-11-02T03:37:05.572Z,9.30
2022-11-02T03:39:32.574Z,9.30
2022-11-02T03:41:59.306Z,9.30
2022-11-02T03:44:26.092Z,9.30
2022-11-02T03:46:53.246Z,9.30
2022-11-02T03:49:20.024Z,9.30
2022-11-02T03:51:48.565Z,9.20
2022-11-02T03:54:15.613Z,9.20
2022-11-02T03:56:42.338Z,9.20
2022-11-02T03:59:09.181Z,9.20
2022-11-02T04:01:36.373Z,9.20
2022-11-02T04:04:03.445Z,9.20
2022-11-02T04:06:30.225Z,9.20
2022-11-02T04:08:57.776Z,9.10
2022-11-02T04:11:43.290Z,9.10
2022-11-02T04:14:32.083Z,9.10
2022-11-02T04:17:19.238Z,9.10
2022-11-02T04:19:50.098Z,9.10
2022-11-02T04:22:37.772Z,9.00
2022-11-02T04:25:18.353Z,9.00
2022-11-02T04:27:52.904Z,9.00
2022-11-02T04:30:24.432Z,9.00
2022-11-02T04:33:12.434Z,9.00
2022-11-02T04:35:45.822Z,8.90
2022-11-02T04:38:51.903Z,8.90
2022-11-02T04:41:42.190Z,8.90
2022-11-02T04:44:37.864Z,8.90
2022-11-02T04:47:17.074Z,8.90
2022-11-02T04:49:45.592Z,8.90
2022-11-02T04:52:16.233Z,8.90
2022-11-02T04:54:48.477Z,8.90
2022-11-02T04:57:15.261Z,8.80
2022-11-02T04:59:43.176Z,8.90
2022-11-02T05:02:09.999Z,8.80
2022-11-02T05:04:38.096Z,8.80
2022-11-02T05:07:07.605Z,8.80
2022-11-02T05:09:35.865Z,8.80
2022-11-02T05:12:05.134Z,8.80
2022-11-02T05:14:33.087Z,8.80
2022-11-02T05:17:00.996Z,8.80
2022-11-02T05:19:28.317Z,8.80
2022-11-02T05:21:55.214Z,8.80
2022-11-02T05:24:23.947Z,8.80
2022-11-02T05:26:53.960Z,8.80
2022-11-02T05:29:22.708Z,8.80
2022-11-02T05:31:50.063Z,8.80
2022-11-02T05:34:16.841Z,8.80
2022-11-02T05:36:43.575Z,8.80
2022-11-02T05:39:10.305Z,8.80
2022-11-02T05:41:37.040Z,8.80
2022-11-02T05:44:04.386Z,8.80
2022-11-02T05:46:31.618Z,8.90
2022-11-02T05:48:58.306Z,8.90
2022-11-02T05:51:24.982Z,8.90
2022-11-02T05:53:51.683Z,8.90
2022-11-02T05:56:23.686Z,8.90
2022-11-02T06:01:24.155Z,9.00
2022-11-02T06:03:53.720Z,8.90
2022-11-02T06:06:21.216Z,9.00
2022-11-02T06:08:47.923Z,8.90
2022-11-02T06:11:14.662Z,9.00
2022-11-02T06:13:41.389Z,9.00
2022-11-02T06:16:09.482Z,8.90
2022-11-02T06:18:37.313Z,9.00
2022-11-02T06:21:03.996Z,8.90
2022-11-02T06:23:30.859Z,9.00
2022-11-02T06:25:58.145Z,9.00
2022-11-02T06:28:24.946Z,9.00
2022-11-02T06:30:52.134Z,8.90
2022-11-02T06:33:18.881Z,9.00
2022-11-02T06:35:46.228Z,9.00
2022-11-02T06:38:13.089Z,9.00
2022-11-02T06:40:39.783Z,8.90
2022-11-02T06:43:21.922Z,9.00
2022-11-02T06:45:48.769Z,9.00
2022-11-02T06:48:15.493Z,9.00
2022-11-02T06:50:42.358Z,8.90
2022-11-02T06:53:09.061Z,9.00
2022-11-02T06:55:35.714Z,9.00
2022-11-02T06:58:02.392Z,9.00
2022-11-02T07:00:30.164Z,9.00
2022-11-02T07:02:57.141Z,9.00
2022-11-02T07:05:23.917Z,9.00
2022-11-02T07:07:50.601Z,9.00
2022-11-02T07:10:17.298Z,9.10
2022-11-02T07:12:44.012Z,9.10
2022-11-02T07:15:10.810Z,9.10
2022-11-02T07:17:37.513Z,9.10
2022-11-02T07:20:05.303Z,9.10
2022-11-02T07:22:32.004Z,9.10
2022-11-02T07:24:58.725Z,9.20
2022-11-02T07:27:25.386Z,9.20
2022-11-02T07:29:52.022Z,9.20
2022-11-02T07:32:18.727Z,9.20
2022-11-02T07:34:45.358Z,9.20
2022-11-02T07:37:12.086Z,9.20
2022-11-02T07:39:38.772Z,9.20
2022-11-02T07:42:07.154Z,9.20
2022-11-02T07:44:33.945Z,9.20
2022-11-02T07:47:01.469Z,9.20
2022-11-02T07:49:28.189Z,9.30
2022-11-02T07:51:54.966Z,9.30
2022-11-02T07:54:21.700Z,9.30
2022-11-02T07:56:48.431Z,9.30
2022-11-02T07:59:15.135Z,9.30
2022-11-02T08:01:41.943Z,9.30
2022-11-02T08:04:08.795Z,9.40
2022-11-02T08:06:36.159Z,9.40
2022-11-02T08:09:03.249Z,9.50
2022-11-02T08:11:30.038Z,9.50
2022-11-02T08:13:56.724Z,9.60
2022-11-02T08:16:23.467Z,9.70
2022-11-02T08:18:50.362Z,9.70
2022-11-02T08:21:17.032Z,9.80
2022-11-02T08:23:43.754Z,9.90
2022-11-02T08:26:10.442Z,9.90
2022-11-02T08:28:40.190Z,10.00
2022-11-02T08:31:09.918Z,10.00
2022-11-02T08:33:36.626Z,10.10
2022-11-02T08:36:04.349Z,10.20
2022-11-02T08:38:31.137Z,10.20
2022-11-02T08:40:57.779Z,10.30
2022-11-02T08:43:24.531Z,10.30
2022-11-02T08:48:37.898Z,10.40
2022-11-02T08:51:05.758Z,10.50
2022-11-02T08:53:32.475Z,10.60
2022-11-02T08:55:59.428Z,10.70
2022-11-02T08:58:26.098Z,10.70
2022-11-02T09:00:52.804Z,10.70
2022-11-02T09:03:26.131Z,10.80
2022-11-02T09:05:53.399Z,10.80
2022-11-02T09:08:20.208Z,10.90
2022-11-02T09:10:47.429Z,11.00
2022-11-02T09:13:14.113Z,11.00
2022-11-02T09:15:40.915Z,11.10
2022-11-02T09:18:08.041Z,11.10
2022-11-02T09:20:34.927Z,11.20
2022-11-02T09:23:01.619Z,11.30
2022-11-02T09:25:28.836Z,11.30
2022-11-02T09:27:55.949Z,11.40
2022-11-02T09:30:22.761Z,11.40
2022-11-02T09:32:49.451Z,11.40
2022-11-02T09:35:16.156Z,11.50
2022-11-02T09:37:46.936Z,11.50
2022-11-02T09:40:16.643Z,11.60
2022-11-02T09:42:43.355Z,11.60
2022-11-02T09:45:10.022Z,11.70
2022-11-02T09:50:23.494Z,11.70
2022-11-02T09:52:50.219Z,11.70
2022-11-02T09:55:16.918Z,11.80
2022-11-02T09:57:43.600Z,11.80
2022-11-02T10:00:10.314Z,11.90
2022-11-02T10:02:37.174Z,11.90
2022-11-02T10:05:03.890Z,12.00
2022-11-02T10:07:30.737Z,12.10
2022-11-02T10:09:57.393Z,12.20
2022-11-02T10:12:24.049Z,12.30
2022-11-02T10:14:50.772Z,12.40
2022-11-02T10:17:17.457Z,12.50
2022-11-02T10:19:44.154Z,12.50
2022-11-02T10:22:11.005Z,12.50
2022-11-02T10:24:37.730Z,12.60
2022-11-02T10:27:04.407Z,12.60
2022-11-02T10:29:31.083Z,12.60
2022-11-02T10:31:57.749Z,12.60
2022-11-02T10:34:24.436Z,12.60
2022-11-02T10:36:51.133Z,12.60
2022-11-02T10:39:17.806Z,12.60
2022-11-02T10:41:44.542Z,12.60
2022-11-02T10:44:11.227Z,12.70
2022-11-02T10:46:38.301Z,12.70
2022-11-02T10:49:04.989Z,12.70
2022-11-02T10:51:31.692Z,12.80
2022-11-02T10:53:58.401Z,12.80
2022-11-02T10:56:25.149Z,12.90
2022-11-02T10:58:51.869Z,13.00
2022-11-02T11:01:18.711Z,13.10
2022-11-02T11:03:45.461Z,13.20
2022-11-02T11:06:12.139Z,13.20
2022-11-02T11:08:38.889Z,13.30
2022-11-02T11:11:05.597Z,13.40
2022-11-02T11:16:20.576Z,13.50
2022-11-02T11:21:36.273Z,13.60
2022-11-02T11:24:03.026Z,13.60
2022-11-02T11:26:29.919Z,13.70
2022-11-02T11:28:56.649Z,13.70
2022-11-02T11:31:23.342Z,13.80
2022-11-02T11:33:50.094Z,13.90
2022-11-02T11:36:16.846Z,13.90
2022-11-02T11:38:43.578Z,14.00
2022-11-02T11:41:10.287Z,14.10
2022-11-02T11:43:38.506Z,14.10
2022-11-02T11:46:07.038Z,14.10
2022-11-02T11:48:34.025Z,14.20
2022-11-02T11:51:00.695Z,14.20
2022-11-02T11:53:27.830Z,14.30
2022-11-02T11:55:54.616Z,14.30
2022-11-02T11:58:21.349Z,14.30
2022-11-02T12:00:48.084Z,14.30
2022-11-02T12:03:16.369Z,14.30
2022-11-02T12:05:43.494Z,14.30
2022-11-02T12:08:10.498Z,14.20
2022-11-02T12:10:37.458Z,14.30
2022-11-02T12:13:04.544Z,14.30
2022-11-02T12:15:31.463Z,14.30
2022-11-02T12:17:58.249Z,14.40
2022-11-02T12:20:25.065Z,14.40
2022-11-02T12:22:51.952Z,14.40
2022-11-02T12:25:18.712Z,14.40
2022-11-02T12:27:47.609Z,14.40
2022-11-02T12:30:15.231Z,14.50
2022-11-02T12:32:41.930Z,14.40
2022-11-02T12:35:27.706Z,14.50
2022-11-02T12:37:55.357Z,14.50
2022-11-02T12:40:22.116Z,14.50
2022-11-02T12:42:48.852Z,14.50
2022-11-02T12:45:15.578Z,14.50
2022-11-02T12:47:42.223Z,14.50
2022-11-02T12:50:09.034Z,14.50
2022-11-02T12:52:35.754Z,14.50
2022-11-02T12:55:02.489Z,14.60
2022-11-02T12:57:29.138Z,14.60
2022-11-02T12:59:55.891Z,14.50
2022-11-02T13:02:22.647Z,14.50
2022-11-02T13:04:49.358Z,14.50
2022-11-02T13:07:16.038Z,14.40
2022-11-02T13:09:44.521Z,14.30
2022-11-02T13:12:14.995Z,14.30
2022-11-02T13:14:41.752Z,14.30
2022-11-02T13:17:10.441Z,14.30
2022-11-02T13:19:37.141Z,14.40
2022-11-02T13:22:03.860Z,14.40
2022-11-02T13:24:31.962Z,14.40
2022-11-02T13:27:13.852Z,14.30
2022-11-02T13:29:41.534Z,14.30
2022-11-02T13:32:08.251Z,14.40
2022-11-02T13:34:35.218Z,14.40
2022-11-02T13:37:01.911Z,14.40
2022-11-02T13:39:28.554Z,14.50
2022-11-02T13:41:55.319Z,14.50
2022-11-02T13:44:22.024Z,14.50
2022-11-02T13:46:49.175Z,14.50
2022-11-02T13:49:17.060Z,14.50
2022-11-02T13:51:43.761Z,14.50
2022-11-02T13:54:10.417Z,14.50
2022-11-02T13:56:37.415Z,14.50
2022-11-02T13:59:04.095Z,14.50
2022-11-02T14:01:30.907Z,14.50
2022-11-02T14:04:01.863Z,14.50
2022-11-02T14:06:28.998Z,14.50
2022-11-02T14:08:55.674Z,14.50
2022-11-02T14:11:22.796Z,14.60
2022-11-02T14:13:49.461Z,14.60
2022-11-02T14:16:16.172Z,14.60
2022-11-02T14:18:42.909Z,14.60
2022-11-02T14:21:09.585Z,14.60
2022-11-02T14:23:36.303Z,14.60
2022-11-02T14:26:03.010Z,14.60
2022-11-02T14:28:30.196Z,14.60
2022-11-02T14:30:56.908Z,14.60
2022-11-02T14:33:23.610Z,14.60
2022-11-02T14:35:50.380Z,14.50
2022-11-02T14:38:17.093Z,14.50
2022-11-02T14:40:46.466Z,14.50
2022-11-02T14:43:14.537Z,14.40
2022-11-02T14:45:41.203Z,14.40
2022-11-02T14:48:07.942Z,14.40
2022-11-02T14:50:34.731Z,14.30
2022-11-02T14:53:01.517Z,14.30
2022-11-02T14:55:28.273Z,14.30
2022-11-02T14:57:55.031Z,14.30
2022-11-02T15:00:21.781Z,14.30
2022-11-02T15:02:48.452Z,14.20
2022-11-02T15:05:15.234Z,14.20
2022-11-02T15:07:41.926Z,14.20
2022-11-02T15:10:08.665Z,14.20
2022-11-02T15:12:35.467Z,14.20
2022-11-02T15:15:02.183Z,14.10
2022-11-02T15:17:28.980Z,14.10
2022-11-02T15:19:55.688Z,14.10
2022-11-02T15:22:22.363Z,14.10
2022-11-02T15:24:49.089Z,14.10
2022-11-02T15:27:15.749Z,14.10
2022-11-02T15:29:42.453Z,14.10
2022-11-02T15:32:10.362Z,14.10
2022-11-02T15:34:37.093Z,14.00
2022-11-02T15:37:03.855Z,14.00
2022-11-02T15:39:30.603Z,14.00
2022-11-02T15:41:57.322Z,14.00
2022-11-02T15:44:24.151Z,14.00
2022-11-02T15:46:50.806Z,14.00
2022-11-02T15:49:17.516Z,14.00
2022-11-02T15:51:44.232Z,13.90
2022-11-02T15:54:11.376Z,14.00
2022-11-02T15:56:38.078Z,13.90
2022-11-02T15:59:04.802Z,13.90
2022-11-02T16:01:31.508Z,13.90
2022-11-02T16:03:58.863Z,13.90
2022-11-02T16:06:25.643Z,13.90
2022-11-02T16:08:52.342Z,13.90
2022-11-02T16:11:19.031Z,13.90
2022-11-02T16:14:03.240Z,13.90
2022-11-02T16:16:35.542Z,13.90
2022-11-02T16:19:02.702Z,13.90
2022-11-02T16:21:29.389Z,13.90
2022-11-02T16:23:56.063Z,13.90
2022-11-02T16:26:22.835Z,13.90
2022-11-02T16:28:49.547Z,13.90
2022-11-02T16:31:19.444Z,14.00
2022-11-02T16:33:46.664Z,14.00
2022-11-02T16:36:13.327Z,14.00
2022-11-02T16:38:39.993Z,14.00
2022-11-02T16:41:06.676Z,14.00
2022-11-02T16:43:33.378Z,14.00
2022-11-02T16:46:00.122Z,14.00
2022-11-02T16:48:26.884Z,14.00
2022-11-02T16:50:53.556Z,14.00
2022-11-02T16:53:20.262Z,14.10
2022-11-02T16:55:46.977Z,14.10
2022-11-02T16:58:13.637Z,14.10
2022-11-02T17:00:40.411Z,14.10
2022-11-02T17:03:07.140Z,14.20
2022-11-02T17:05:33.841Z,14.20
2022-11-02T17:08:00.578Z,14.20
2022-11-02T17:10:27.245Z,14.30
2022-11-02T17:12:53.906Z,14.30
2022-11-02T17:15:20.603Z,14.30
2022-11-02T17:17:47.279Z,14.30
2022-11-02T17:20:17.076Z,14.40
2022-11-02T17:22:43.795Z,14.40
2022-11-02T17:25:10.471Z,14.30
2022-11-02T17:27:39.525Z,14.30
2022-11-02T17:30:09.061Z,14.30
2022-11-02T17:32:35.732Z,14.40
2022-11-02T17:35:04.715Z,14.30
2022-11-02T17:37:31.428Z,14.40
2022-11-02T17:39:58.124Z,14.40
2022-11-02T17:42:43.384Z,14.40
2022-11-02T17:47:37.668Z,14.40
2022-11-02T17:50:04.450Z,14.40
2022-11-02T17:52:31.092Z,14.40
2022-11-02T17:54:59.004Z,14.40
2022-11-02T17:57:25.769Z,14.40
2022-11-02T17:59:52.530Z,14.50
2022-11-02T18:02:19.374Z,14.50
2022-11-02T18:04:46.171Z,14.50
2022-11-02T18:07:12.910Z,14.50
2022-11-02T18:09:39.607Z,14.50
2022-11-02T18:12:06.312Z,14.50
2022-11-02T18:14:33.016Z,14.50
2022-11-02T18:16:59.720Z,14.50
2022-11-02T18:19:26.437Z,14.40
2022-11-02T18:21:53.121Z,14.40
2022-11-02T18:24:19.806Z,14.40
2022-11-02T18:26:47.163Z,14.40
2022-11-02T18:29:14.015Z,14.40
2022-11-02T18:31:40.715Z,14.40
2022-11-02T18:34:07.438Z,14.40
2022-11-02T18:36:34.163Z,14.40
2022-11-02T18:39:00.880Z,14.40
2022-11-02T18:41:27.708Z,14.40
2022-11-02T18:43:57.880Z,14.30
2022-11-02T18:46:30.560Z,14.30
2022-11-02T18:48:57.650Z,14.30
2022-11-02T18:51:24.311Z,14.30
2022-11-02T18:53:50.984Z,14.20
2022-11-02T18:56:17.761Z,14.20
2022-11-02T18:58:44.538Z,14.20
2022-11-02T19:01:11.513Z,14.20
2022-11-02T19:03:38.320Z,14.10
2022-11-02T19:06:23.535Z,14.10
2022-11-02T19:09:08.979Z,14.10
2022-11-02T19:11:35.637Z,14.10
2022-11-02T19:14:02.326Z,14.10
2022-11-02T19:16:29.002Z,14.10
2022-11-02T19:18:55.698Z,14.10
2022-11-02T19:21:22.380Z,14.10
2022-11-02T19:23:49.074Z,14.20
2022-11-02T19:26:15.835Z,14.20
2022-11-02T19:28:42.575Z,14.20
2022-11-02T19:31:09.298Z,14.30
2022-11-02T19:33:36.095Z,14.30
2022-11-02T19:36:02.810Z,14.30
2022-11-02T19:38:29.489Z,14.30
2022-11-02T19:40:56.179Z,14.30
2022-11-02T19:43:22.811Z,14.30
2022-11-02T19:45:49.482Z,14.40
2022-11-02T19:48:16.252Z,14.40
2022-11-02T19:50:42.929Z,14.40
2022-11-02T19:53:09.578Z,14.40
2022-11-02T19:55:36.271Z,14.50
2022-11-02T19:58:03.266Z,14.40
2022-11-02T20:00:30.225Z,14.40
2022-11-02T20:02:56.969Z,14.40
2022-11-02T20:05:23.712Z,14.30
2022-11-02T20:07:50.684Z,14.30
2022-11-02T20:10:17.409Z,14.30
2022-11-02T20:12:44.077Z,14.30
2022-11-02T20:15:12.161Z,14.30
2022-11-02T20:17:58.234Z,14.30
2022-11-02T20:20:25.514Z,14.30
2022-11-02T20:22:52.231Z,14.30
2022-11-02T20:25:18.939Z,14.30
2022-11-02T20:27:45.689Z,14.20
2022-11-02T20:30:12.506Z,14.20
2022-11-02T20:32:39.248Z,14.10
2022-11-02T20:35:11.025Z,14.10
2022-11-02T20:37:40.069Z,14.10
2022-11-02T20:40:07.309Z,14.00
2022-11-02T20:42:34.051Z,14.00
2022-11-02T20:45:00.774Z,13.90
2022-11-02T20:47:28.201Z,13.90
2022-11-02T20:49:54.883Z,13.90
2022-11-02T20:52:22.150Z,13.90
2022-11-02T20:54:48.850Z,13.90
2022-11-02T20:57:15.538Z,13.90
2022-11-02T20:59:42.240Z,13.90
2022-11-02T21:02:09.007Z,13.80
2022-11-02T21:04:35.763Z,13.80
2022-11-02T21:07:02.422Z,13.70
2022-11-02T21:09:30.591Z,13.70
2022-11-02T21:12:15.808Z,13.70
2022-11-02T21:14:42.530Z,13.70
2022-11-02T21:17:09.294Z,13.70
2022-11-02T21:19:36.043Z,13.70
2022-11-02T21:22:02.737Z,13.80
2022-11-02T21:24:29.516Z,13.80
2022-11-02T21:26:56.245Z,13.80
2022-11-02T21:29:22.999Z,13.80
2022-11-02T21:31:49.671Z,13.90
2022-11-02T21:34:16.356Z,13.90
2022-11-02T21:36:43.063Z,13.90
2022-11-02T21:39:09.771Z,13.90
2022-11-02T21:41:38.621Z,13.90
2022-11-02T21:44:05.351Z,13.90
2022-11-02T21:46:32.068Z,14.00
2022-11-02T21:48:58.772Z,13.90
2022-11-02T21:51:25.550Z,14.00
2022-11-02T21:53:52.420Z,14.00
2022-11-02T21:56:19.084Z,14.00
2022-11-02T21:58:46.628Z,14.00
2022-11-02T22:01:32.302Z,14.10
2022-11-02T22:03:59.077Z,14.10
2022-11-02T22:06:30.803Z,14.10
2022-11-02T22:08:58.083Z,14.10
2022-11-02T22:11:27.497Z,14.10
2022-11-02T22:13:54.179Z,14.10
2022-11-02T22:16:20.998Z,14.10
2022-11-02T22:18:47.797Z,14.10
2022-11-02T22:21:14.533Z,14.10
2022-11-02T22:23:41.225Z,14.10
2022-11-02T22:26:07.949Z,14.10
2022-11-02T22:28:34.631Z,14.10
2022-11-02T22:31:01.344Z,14.10
2022-11-02T22:33:28.032Z,14.10
2022-11-02T22:35:54.724Z,14.10
2022-11-02T22:38:40.039Z,14.10
2022-11-02T22:41:06.746Z,14.10
2022-11-02T22:43:33.435Z,14.10
2022-11-02T22:46:00.815Z,14.10
2022-11-02T22:48:27.503Z,14.10
2022-11-02T22:50:54.236Z,14.10
2022-11-02T22:53:20.943Z,14.10
2022-11-02T22:55:47.613Z,14.10
2022-11-02T22:58:14.294Z,14.10
2022-11-02T23:00:41.173Z,14.10
2022-11-02T23:03:08.373Z,14.10
2022-11-02T23:05:35.260Z,14.10
2022-11-02T23:08:01.955Z,14.10
2022-11-02T23:10:49.303Z,14.10
2022-11-02T23:13:18.773Z,14.10
2022-11-02T23:15:45.446Z,14.10
2022-11-02T23:18:12.187Z,14.10
2022-11-02T23:20:38.849Z,14.10
2022-11-02T23:23:25.701Z,14.10
2022-11-02T23:25:52.399Z,14.00
2022-11-02T23:28:37.645Z,14.00
2022-11-02T23:31:23.137Z,14.00
2022-11-02T23:33:49.862Z,14.00
2022-11-02T23:36:16.554Z,14.00
2022-11-02T23:39:01.902Z,13.90
2022-11-02T23:41:28.638Z,13.90
2022-11-02T23:44:15.607Z,13.90
2022-11-02T23:46:42.341Z,13.80
2022-11-02T23:49:09.014Z,13.80
2022-11-02T23:51:54.356Z,13.80
2022-11-02T23:54:56.603Z,13.80
2022-11-02T23:57:25.528Z,13.70
2022-11-02T23:59:52.254Z,13.70
